createdAt,value
2018-11-03T07:28:47.426Z,1022.77
2018-11-03T07:29:47.512Z,1022.79
2018-11-03T07:30:47.374Z,1022.82
2018-11-03T07:31:47.316Z,1022.80
2018-11-03T07:32:47.394Z,1022.79
2018-11-03T07:33:47.260Z,1022.81
2018-11-03T07:34:47.298Z,1022.85
2018-11-03T07:35:47.207Z,1022.81
2018-11-03T07:36:47.227Z,1022.81
2018-11-03T07:37:47.134Z,1022.83
2018-11-03T07:38:47.121Z,1022.88
2018-11-03T07:39:47.076Z,1022.82
2018-11-03T07:40:47.185Z,1022.84
2018-11-03T07:41:47.090Z,1022.84
2018-11-03T07:42:47.131Z,1022.81
2018-11-03T07:43:46.957Z,1022.86
2018-11-03T07:44:46.959Z,1022.81
2018-11-03T07:45:46.905Z,1022.83
2018-11-03T07:46:46.978Z,1022.83
2018-11-03T07:48:46.886Z,1022.72
2018-11-03T07:49:46.699Z,1022.72
2018-11-03T07:50:46.711Z,1022.65
2018-11-03T07:51:46.643Z,1022.72
2018-11-03T07:52:46.726Z,1022.67
2018-11-03T07:53:46.578Z,1022.67
2018-11-03T07:54:46.642Z,1022.66
2018-11-03T07:55:46.519Z,1022.70
2018-11-03T07:56:46.533Z,1022.69
2018-11-03T07:57:46.460Z,1022.68
2018-11-03T07:58:46.537Z,1022.63
2018-11-03T07:59:46.402Z,1022.74
2018-11-03T08:00:46.590Z,1022.74
2018-11-03T08:01:46.333Z,1022.73
2018-11-03T08:02:46.361Z,1022.71
2018-11-03T08:04:32.218Z,1022.71
2018-11-03T08:05:27.001Z,1022.72
2018-11-03T08:06:12.962Z,1022.74
2018-11-03T08:07:12.857Z,1022.73
2018-11-03T08:08:12.809Z,1022.71
2018-11-03T08:09:12.842Z,1022.73
2018-11-03T08:10:12.823Z,1022.68
2018-11-03T08:11:12.699Z,1022.65
2018-11-03T08:12:12.731Z,1022.67
2018-11-03T08:13:12.637Z,1022.62
2018-11-03T08:14:12.650Z,1022.66
2018-11-03T08:15:12.595Z,1022.63
2018-11-03T08:16:12.650Z,1022.62
2018-11-03T08:17:12.548Z,1022.67
2018-11-03T08:18:12.560Z,1022.68
2018-11-03T08:19:12.504Z,1022.70
2018-11-03T08:20:12.471Z,1022.71
2018-11-03T08:21:12.433Z,1022.66
2018-11-03T08:22:12.464Z,1022.68
2018-11-03T08:23:12.353Z,1022.67
2018-11-03T08:24:12.374Z,1022.65
2018-11-03T08:25:12.295Z,1022.64
2018-11-03T08:26:12.284Z,1022.62
2018-11-03T08:27:12.232Z,1022.67
2018-11-03T08:28:12.294Z,1022.66
2018-11-03T08:29:12.165Z,1022.62
2018-11-03T08:31:01.345Z,1022.65
2018-11-03T08:32:01.367Z,1022.64
2018-11-03T08:33:01.247Z,1022.67
2018-11-03T08:34:01.291Z,1022.71
2018-11-03T08:35:01.185Z,1022.72
2018-11-03T08:36:01.160Z,1022.74
2018-11-03T08:37:01.149Z,1022.73
2018-11-03T08:38:01.108Z,1022.74
2018-11-03T08:39:01.069Z,1022.71
2018-11-03T08:40:01.036Z,1022.70
2018-11-03T08:41:01.002Z,1022.65
2018-11-03T08:42:47.991Z,1022.60
2018-11-03T08:43:46.825Z,1022.65
2018-11-03T08:44:46.776Z,1022.63
2018-11-03T08:45:46.866Z,1022.63
2018-11-03T08:46:46.726Z,1022.64
2018-11-03T08:47:46.696Z,1022.60
2018-11-03T08:48:46.856Z,1022.61
2018-11-03T08:49:46.647Z,1022.53
2018-11-03T08:50:46.627Z,1022.55
2018-11-03T08:51:46.572Z,1022.53
2018-11-03T08:52:46.543Z,1022.51
2018-11-03T08:53:46.510Z,1022.48
2018-11-03T08:55:32.948Z,1022.46
2018-11-03T08:56:32.983Z,1022.48
2018-11-03T08:57:32.864Z,1022.47
2018-11-03T08:58:32.903Z,1022.45
2018-11-03T08:59:32.856Z,1022.45
2018-11-03T09:00:32.767Z,1022.48
2018-11-03T09:01:32.801Z,1022.45
2018-11-03T09:02:32.764Z,1022.42
2018-11-03T09:03:32.700Z,1022.41
2018-11-03T09:04:32.664Z,1022.37
2018-11-03T09:05:32.610Z,1022.38
2018-11-03T09:06:32.575Z,1022.40
2018-11-03T09:07:32.648Z,1022.35
2018-11-03T09:08:32.528Z,1022.40
2018-11-03T09:09:32.489Z,1022.43
2018-11-03T09:10:32.459Z,1022.44
2018-11-03T09:11:32.439Z,1022.46
2018-11-03T09:12:32.394Z,1022.44
2018-11-03T09:13:32.394Z,1022.47
2018-11-03T09:14:32.453Z,1022.45
2018-11-03T09:15:32.304Z,1022.43
2018-11-03T09:16:32.283Z,1022.45
2018-11-03T09:17:32.255Z,1022.41
2018-11-03T09:18:32.222Z,1022.36
2018-11-03T09:19:32.176Z,1022.36
2018-11-03T09:20:32.214Z,1022.37
2018-11-03T09:21:32.136Z,1022.36
2018-11-03T09:22:32.123Z,1022.40
2018-11-03T09:23:32.075Z,1022.35
2018-11-03T09:24:32.043Z,1022.33
2018-11-03T09:25:31.991Z,1022.30
2018-11-03T09:26:32.001Z,1022.31
2018-11-03T09:27:31.938Z,1022.25
2018-11-03T09:28:31.907Z,1022.25
2018-11-03T09:29:31.884Z,1022.26
2018-11-03T09:30:31.849Z,1022.26
2018-11-03T09:31:31.807Z,1022.27
2018-11-03T09:32:31.782Z,1022.23
2018-11-03T09:33:31.757Z,1022.26
2018-11-03T09:34:31.876Z,1022.22
2018-11-03T09:35:31.791Z,1022.18
2018-11-03T09:37:26.566Z,1022.22
2018-11-03T09:38:26.637Z,1022.26
2018-11-03T09:39:26.478Z,1022.29
2018-11-03T09:40:26.505Z,1022.25
2018-11-03T09:41:26.423Z,1022.27
2018-11-03T09:42:26.415Z,1022.31
2018-11-03T09:43:26.506Z,1022.27
2018-11-03T09:44:26.911Z,1022.27
2018-11-03T09:45:26.324Z,1022.27
2018-11-03T09:46:26.381Z,1022.27
2018-11-03T09:48:12.712Z,1022.25
2018-11-03T09:49:12.674Z,1022.25
2018-11-03T09:50:12.657Z,1022.25
2018-11-03T09:51:12.737Z,1022.25
2018-11-03T09:52:12.672Z,1022.29
2018-11-03T09:53:12.728Z,1022.26
2018-11-03T09:54:12.869Z,1022.27
2018-11-03T09:55:12.554Z,1022.29
2018-11-03T09:56:12.489Z,1022.32
2018-11-03T09:57:12.581Z,1022.30
2018-11-03T09:58:13.481Z,1022.31
2018-11-03T09:59:12.382Z,1022.31
2018-11-03T10:00:12.415Z,1022.32
2018-11-03T10:01:12.297Z,1022.26
2018-11-03T10:02:12.338Z,1022.29
2018-11-03T10:03:12.238Z,1022.27
2018-11-03T10:04:12.231Z,1022.27
2018-11-03T10:05:12.200Z,1022.31
2018-11-03T10:06:12.249Z,1022.29
2018-11-03T10:07:12.115Z,1022.29
2018-11-03T10:08:12.167Z,1022.32
2018-11-03T10:09:12.074Z,1022.34
2018-11-03T10:10:13.097Z,1022.31
2018-11-03T10:11:12.022Z,1022.31
2018-11-03T10:12:11.982Z,1022.32
2018-11-03T10:13:11.948Z,1022.34
2018-11-03T10:14:11.998Z,1022.35
2018-11-03T10:15:11.876Z,1022.36
2018-11-03T10:16:11.910Z,1022.37
2018-11-03T10:17:58.275Z,1022.30
2018-11-03T10:18:58.220Z,1022.28
2018-11-03T10:19:58.250Z,1022.27
2018-11-03T10:20:58.165Z,1022.26
2018-11-03T10:21:58.309Z,1022.25
2018-11-03T10:22:58.171Z,1022.23
2018-11-03T10:23:58.137Z,1022.25
2018-11-03T10:24:58.039Z,1022.20
2018-11-03T10:25:58.051Z,1022.17
2018-11-03T10:26:57.972Z,1022.17
2018-11-03T10:27:57.979Z,1022.15
2018-11-03T10:28:57.917Z,1022.18
2018-11-03T10:29:58.997Z,1022.15
2018-11-03T10:30:57.861Z,1022.09
2018-11-03T10:31:57.837Z,1022.17
2018-11-03T10:32:57.794Z,1022.14
2018-11-03T10:33:57.795Z,1022.17
2018-11-03T10:34:57.735Z,1022.20
2018-11-03T10:35:57.703Z,1022.16
2018-11-03T10:36:57.693Z,1022.11
2018-11-03T10:37:57.719Z,1022.13
2018-11-03T10:38:57.613Z,1022.13
2018-11-03T10:39:57.590Z,1022.15
2018-11-03T10:40:57.553Z,1022.12
2018-11-03T10:41:57.559Z,1022.11
2018-11-03T10:42:57.492Z,1022.11
2018-11-03T10:43:57.460Z,1022.16
2018-11-03T10:44:57.458Z,1022.15
2018-11-03T10:45:57.405Z,1022.17
2018-11-03T10:46:57.476Z,1022.16
2018-11-03T10:48:43.431Z,1022.16
2018-11-03T10:49:43.382Z,1022.09
2018-11-03T10:50:43.361Z,1022.10
2018-11-03T10:51:43.335Z,1022.15
2018-11-03T10:52:43.296Z,1022.11
2018-11-03T10:53:43.308Z,1022.13
2018-11-03T10:54:43.232Z,1022.10
2018-11-03T10:55:43.203Z,1022.03
2018-11-03T10:56:43.168Z,1022.03
2018-11-03T10:57:43.145Z,1021.99
2018-11-03T10:58:43.223Z,1021.99
2018-11-03T10:59:43.081Z,1022.06
2018-11-03T11:00:43.055Z,1022.07
2018-11-03T11:01:43.021Z,1022.03
2018-11-03T11:02:43.042Z,1022.02
2018-11-03T11:03:43.014Z,1022.00
2018-11-03T11:04:42.923Z,1021.97
2018-11-03T11:05:42.900Z,1021.94
2018-11-03T11:06:42.975Z,1021.92
2018-11-03T11:07:42.841Z,1021.91
2018-11-03T11:08:42.826Z,1022.00
2018-11-03T11:09:28.821Z,1022.01
2018-11-03T11:10:28.775Z,1022.01
2018-11-03T11:11:28.754Z,1021.98
2018-11-03T11:12:28.719Z,1021.97
2018-11-03T11:13:28.683Z,1021.93
2018-11-03T11:14:28.648Z,1021.94
2018-11-03T11:15:28.645Z,1021.95
2018-11-03T11:16:28.671Z,1021.90
2018-11-03T11:17:28.567Z,1021.94
2018-11-03T11:18:28.524Z,1021.90
2018-11-03T11:19:28.499Z,1021.88
2018-11-03T11:20:28.471Z,1021.93
2018-11-03T11:21:28.434Z,1021.86
2018-11-03T11:22:28.414Z,1021.88
2018-11-03T11:23:29.523Z,1021.84
2018-11-03T11:24:28.371Z,1021.83
2018-11-03T11:25:28.374Z,1021.82
2018-11-03T11:26:28.364Z,1021.80
2018-11-03T11:27:28.253Z,1021.81
2018-11-03T11:28:28.284Z,1021.77
2018-11-03T11:29:28.224Z,1021.76
2018-11-03T11:30:28.163Z,1021.74
2018-11-03T11:31:28.252Z,1021.67
2018-11-03T11:32:15.070Z,1021.67
2018-11-03T11:33:14.915Z,1021.71
2018-11-03T11:34:14.903Z,1021.67
2018-11-03T11:35:14.853Z,1021.76
2018-11-03T11:36:14.833Z,1021.74
2018-11-03T11:37:14.823Z,1021.76
2018-11-03T11:38:14.796Z,1021.73
2018-11-03T11:40:01.042Z,1021.64
2018-11-03T11:41:00.980Z,1021.69
2018-11-03T11:42:00.980Z,1021.69
2018-11-03T11:43:01.083Z,1021.68
2018-11-03T11:44:00.919Z,1021.64
2018-11-03T11:45:00.868Z,1021.63
2018-11-03T11:46:00.834Z,1021.63
2018-11-03T11:47:00.803Z,1021.62
2018-11-03T11:48:00.790Z,1021.61
2018-11-03T11:49:47.185Z,1021.59
2018-11-03T11:50:47.124Z,1021.57
2018-11-03T11:52:45.687Z,1021.57
2018-11-03T11:53:45.576Z,1021.58
2018-11-03T11:54:45.599Z,1021.52
2018-11-03T11:55:45.527Z,1021.54
2018-11-03T11:56:45.590Z,1021.51
2018-11-03T11:57:45.455Z,1021.55
2018-11-03T11:58:45.422Z,1021.55
2018-11-03T11:59:45.417Z,1021.52
2018-11-03T12:00:45.504Z,1021.47
2018-11-03T12:01:45.343Z,1021.48
2018-11-03T12:02:45.303Z,1021.46
2018-11-03T12:03:45.313Z,1021.43
2018-11-03T12:04:45.244Z,1021.42
2018-11-03T12:05:45.228Z,1021.40
2018-11-03T12:06:45.194Z,1021.42
2018-11-03T12:07:45.247Z,1021.37
2018-11-03T12:08:45.124Z,1021.35
2018-11-03T12:09:45.188Z,1021.34
2018-11-03T12:10:45.071Z,1021.35
2018-11-03T12:11:45.040Z,1021.31
2018-11-03T12:12:45.022Z,1021.32
2018-11-03T12:13:44.984Z,1021.31
2018-11-03T12:14:45.065Z,1021.31
2018-11-03T12:15:44.920Z,1021.32
2018-11-03T12:16:44.894Z,1021.34
2018-11-03T12:17:44.959Z,1021.33
2018-11-03T12:18:44.907Z,1021.30
2018-11-03T12:20:30.677Z,1021.29
2018-11-03T12:21:30.625Z,1021.30
2018-11-03T12:22:30.581Z,1021.29
2018-11-03T12:23:30.551Z,1021.31
2018-11-03T12:24:30.551Z,1021.31
2018-11-03T12:25:30.559Z,1021.32
2018-11-03T12:26:30.504Z,1021.29
2018-11-03T12:27:30.597Z,1021.32
2018-11-03T12:28:20.669Z,1021.28
2018-11-03T12:32:05.532Z,1021.14
2018-11-03T12:33:05.583Z,1021.18
2018-11-03T12:34:05.465Z,1021.16
2018-11-03T12:35:05.498Z,1021.20
2018-11-03T12:36:05.408Z,1021.18
2018-11-03T12:37:05.387Z,1021.12
2018-11-03T12:38:05.353Z,1021.13
2018-11-03T12:39:05.427Z,1021.09
2018-11-03T12:40:05.294Z,1021.05
2018-11-03T12:41:05.367Z,1021.08
2018-11-03T12:42:05.231Z,1021.07
2018-11-03T12:43:05.257Z,1021.06
2018-11-03T12:44:05.190Z,1021.09
2018-11-03T12:45:05.263Z,1021.04
2018-11-03T12:46:05.146Z,1021.05
2018-11-03T12:47:05.172Z,1021.04
2018-11-03T12:48:05.123Z,1021.03
2018-11-03T12:49:05.038Z,1021.00
2018-11-03T12:50:05.031Z,1020.98
2018-11-03T12:51:04.982Z,1020.99
2018-11-03T12:52:05.011Z,1020.95
2018-11-03T12:53:04.927Z,1020.94
2018-11-03T12:54:05.011Z,1020.90
2018-11-03T12:55:04.888Z,1020.91
2018-11-03T12:56:04.925Z,1020.93
2018-11-03T12:57:04.811Z,1020.92
2018-11-03T12:58:04.869Z,1020.92
2018-11-03T12:59:04.784Z,1020.91
2018-11-03T13:00:04.723Z,1020.90
2018-11-03T13:01:04.759Z,1020.93
2018-11-03T13:02:04.672Z,1020.87
2018-11-03T13:03:04.669Z,1020.89
2018-11-03T13:04:04.618Z,1020.86
2018-11-03T13:05:04.788Z,1020.83
2018-11-03T13:06:04.557Z,1020.81
2018-11-03T13:07:04.588Z,1020.84
2018-11-03T13:08:04.503Z,1020.80
2018-11-03T13:09:04.503Z,1020.81
2018-11-03T13:10:04.498Z,1020.77
2018-11-03T13:11:51.296Z,1020.75
2018-11-03T13:12:51.325Z,1020.77
2018-11-03T13:13:51.200Z,1020.76
2018-11-03T13:14:51.233Z,1020.75
2018-11-03T13:15:51.154Z,1020.78
2018-11-03T13:16:51.119Z,1020.71
2018-11-03T13:17:51.154Z,1020.67
2018-11-03T13:18:51.067Z,1020.70
2018-11-03T13:19:51.063Z,1020.72
2018-11-03T13:20:51.005Z,1020.65
2018-11-03T13:21:51.109Z,1020.71
2018-11-03T13:22:51.021Z,1020.67
2018-11-03T13:23:50.999Z,1020.66
2018-11-03T13:24:50.898Z,1020.65
2018-11-03T13:25:50.895Z,1020.63
2018-11-03T13:26:50.829Z,1020.63
2018-11-03T13:27:50.913Z,1020.60
2018-11-03T13:28:50.775Z,1020.61
2018-11-03T13:29:50.776Z,1020.57
2018-11-03T13:30:50.721Z,1020.60
2018-11-03T13:41:39.704Z,1020.41
2018-11-03T13:42:38.562Z,1020.43
2018-11-03T13:48:05.116Z,1020.45
2018-11-03T13:49:05.121Z,1020.39
2018-11-03T14:31:21.552Z,1020.13
2018-11-03T14:32:21.522Z,1020.15
2018-11-03T14:33:21.518Z,1020.13
2018-11-03T14:34:21.470Z,1020.12
2018-11-03T14:35:21.446Z,1020.11
2018-11-03T14:36:21.545Z,1020.09
2018-11-03T14:39:55.192Z,1020.03
2018-11-03T14:40:55.177Z,1020.02
2018-11-03T14:41:41.017Z,1020.00
2018-11-03T14:42:41.005Z,1020.00
2018-11-03T14:43:40.974Z,1019.96
2018-11-03T14:44:40.967Z,1019.98
2018-11-03T14:45:40.906Z,1019.95
2018-11-03T14:46:40.910Z,1019.94
2018-11-03T14:47:40.847Z,1019.94
2018-11-03T14:48:40.831Z,1019.93
2018-11-03T14:49:40.796Z,1019.87
2018-11-03T14:50:40.790Z,1019.82
2018-11-03T14:51:40.748Z,1019.86
2018-11-03T14:52:40.718Z,1019.86
2018-11-03T14:53:40.685Z,1019.82
2018-11-03T14:54:40.663Z,1019.86
2018-11-03T14:55:40.688Z,1019.83
2018-11-03T14:56:40.658Z,1019.84
2018-11-03T14:57:40.576Z,1019.84
2018-11-03T14:58:40.552Z,1019.87
2018-11-03T14:59:41.536Z,1019.82
2018-11-03T15:10:23.866Z,1019.71
2018-11-03T15:11:23.831Z,1019.69
2018-11-03T15:14:19.093Z,1019.62
2018-11-03T15:15:18.926Z,1019.61
2018-11-03T15:17:33.731Z,1019.59
2018-11-03T15:18:33.708Z,1019.59
2018-11-03T15:19:33.649Z,1019.61
2018-11-03T15:23:21.255Z,1019.60
2018-11-03T15:24:21.198Z,1019.62
2018-11-03T15:25:21.389Z,1019.59
2018-11-03T15:26:21.363Z,1019.61
2018-11-03T15:27:21.341Z,1019.57
2018-11-03T15:31:15.708Z,1019.53
2018-11-03T15:32:15.678Z,1019.48
2018-11-03T15:33:16.650Z,1019.48
2018-11-03T15:34:15.619Z,1019.45
2018-11-03T15:35:15.592Z,1019.44
2018-11-03T15:36:15.565Z,1019.38
2018-11-03T15:37:15.534Z,1019.37
2018-11-03T15:38:15.525Z,1019.39
2018-11-03T15:39:15.503Z,1019.37
2018-11-03T15:40:15.505Z,1019.36
2018-11-03T15:41:15.487Z,1019.32
2018-11-03T15:42:15.421Z,1019.31
2018-11-03T15:43:15.360Z,1019.33
2018-11-03T15:44:15.454Z,1019.31
2018-11-03T15:46:16.331Z,1019.30
2018-11-03T15:47:16.372Z,1019.28
2018-11-03T15:48:16.256Z,1019.26
2018-11-03T15:49:16.228Z,1019.24
2018-11-03T15:50:16.199Z,1019.24
2018-11-03T15:51:16.293Z,1019.20
2018-11-03T15:52:16.142Z,1019.21
2018-11-03T15:53:16.138Z,1019.17
2018-11-03T15:54:16.097Z,1019.17
2018-11-03T15:55:16.099Z,1019.16
2018-11-03T15:56:16.031Z,1019.15
2018-11-03T15:57:16.007Z,1019.13
2018-11-03T15:58:15.967Z,1019.11
2018-11-03T15:59:15.942Z,1019.11
2018-11-03T16:00:15.985Z,1019.06
2018-11-03T16:02:06.867Z,1019.07
2018-11-03T16:03:06.864Z,1019.07
2018-11-03T16:04:06.751Z,1019.06
2018-11-03T16:05:06.728Z,1019.04
2018-11-03T16:06:06.683Z,1019.07
2018-11-03T16:07:06.680Z,1019.02
2018-11-03T16:08:06.634Z,1019.01
2018-11-03T16:09:06.708Z,1019.04
2018-11-03T16:10:06.583Z,1019.02
2018-11-03T16:11:06.620Z,1019.05
2018-11-03T16:12:06.567Z,1019.03
2018-11-03T16:13:06.515Z,1019.02
2018-11-03T16:14:06.478Z,1019.01
2018-11-03T16:15:06.433Z,1019.02
2018-11-03T16:16:06.418Z,1018.97
2018-11-03T16:17:06.385Z,1018.97
2018-11-03T16:18:06.440Z,1018.95
2018-11-03T16:19:06.438Z,1018.92
2018-11-03T16:20:59.999Z,1018.93
2018-11-03T16:21:59.937Z,1018.93
2018-11-03T16:23:54.385Z,1018.95
2018-11-03T16:24:54.316Z,1018.92
2018-11-03T16:26:49.004Z,1018.90
2018-11-03T16:27:48.994Z,1018.90
2018-11-03T16:28:48.890Z,1018.89
2018-11-03T16:29:48.861Z,1018.88
2018-11-03T16:30:48.826Z,1018.82
2018-11-03T16:31:48.824Z,1018.88
2018-11-03T16:32:48.966Z,1018.92
2018-11-03T16:33:48.865Z,1018.94
2018-11-03T16:34:48.755Z,1018.91
2018-11-03T16:35:48.687Z,1018.90
2018-11-03T16:36:48.657Z,1018.90
2018-11-03T16:37:48.664Z,1018.89
2018-11-03T16:38:48.652Z,1018.89
2018-11-03T16:39:48.574Z,1018.86
2018-11-03T16:40:48.548Z,1018.88
2018-11-03T16:41:48.519Z,1018.86
2018-11-03T16:42:48.479Z,1018.87
2018-11-03T16:43:48.467Z,1018.83
2018-11-03T16:44:48.437Z,1018.80
2018-11-03T16:45:48.443Z,1018.76
2018-11-03T16:46:48.389Z,1018.78
2018-11-03T16:47:48.356Z,1018.74
2018-11-03T16:48:48.314Z,1018.81
2018-11-03T16:49:48.319Z,1018.75
2018-11-03T16:50:48.318Z,1018.82
2018-11-03T16:51:48.227Z,1018.85
2018-11-03T16:52:48.356Z,1018.84
2018-11-03T16:53:48.195Z,1018.83
2018-11-03T16:54:48.157Z,1018.84
2018-11-03T16:55:48.151Z,1018.85
2018-11-03T16:56:48.112Z,1018.83
2018-11-03T16:57:48.066Z,1018.86
2018-11-03T16:58:48.144Z,1018.88
2018-11-03T16:59:48.004Z,1018.88
2018-11-03T17:00:47.994Z,1018.90
2018-11-03T17:01:47.985Z,1018.92
2018-11-03T17:02:47.942Z,1018.90
2018-11-03T17:03:47.901Z,1018.92
2018-11-03T17:04:47.872Z,1018.94
2018-11-03T17:06:34.173Z,1018.91
2018-11-03T17:07:34.205Z,1018.90
2018-11-03T17:08:34.105Z,1018.92
2018-11-03T17:09:34.049Z,1018.88
2018-11-03T17:10:34.020Z,1018.89
2018-11-03T17:11:34.009Z,1018.86
2018-11-03T17:12:34.054Z,1018.89
2018-11-03T17:13:33.933Z,1018.80
2018-11-03T17:14:33.906Z,1018.82
2018-11-03T17:15:33.937Z,1018.73
2018-11-03T17:17:19.699Z,1018.73
2018-11-03T17:18:19.703Z,1018.75
2018-11-03T17:19:19.608Z,1018.72
2018-11-03T17:20:19.593Z,1018.70
2018-11-03T17:21:19.555Z,1018.70
2018-11-03T17:22:19.522Z,1018.73
2018-11-03T17:23:19.580Z,1018.74
2018-11-03T17:24:19.482Z,1018.70
2018-11-03T17:25:19.597Z,1018.69
2018-11-03T17:26:19.416Z,1018.71
2018-11-03T17:27:19.385Z,1018.68
2018-11-03T17:28:19.355Z,1018.71
2018-11-03T17:29:19.352Z,1018.67
2018-11-03T17:30:19.294Z,1018.71
2018-11-03T17:31:19.440Z,1018.67
2018-11-03T17:32:19.261Z,1018.69
2018-11-03T17:33:19.220Z,1018.65
2018-11-03T17:34:19.281Z,1018.65
2018-11-03T17:35:19.217Z,1018.65
2018-11-03T17:36:19.282Z,1018.65
2018-11-03T17:37:19.100Z,1018.63
2018-11-03T17:38:19.198Z,1018.63
2018-11-03T17:39:19.055Z,1018.63
2018-11-03T17:40:19.118Z,1018.58
2018-11-03T17:41:19.005Z,1018.58
2018-11-03T17:42:19.028Z,1018.56
2018-11-03T17:43:18.943Z,1018.54
2018-11-03T17:44:19.047Z,1018.54
2018-11-03T17:45:05.462Z,1018.56
2018-11-03T17:46:05.422Z,1018.52
2018-11-03T17:47:05.380Z,1018.57
2018-11-03T17:48:05.349Z,1018.54
2018-11-03T17:49:05.407Z,1018.50
2018-11-03T17:50:05.290Z,1018.53
2018-11-03T17:51:05.318Z,1018.49
2018-11-03T17:52:05.233Z,1018.50
2018-11-03T17:53:05.219Z,1018.52
2018-11-03T17:54:05.199Z,1018.50
2018-11-03T17:55:05.178Z,1018.46
2018-11-03T17:56:05.117Z,1018.49
2018-11-03T17:57:05.088Z,1018.44
2018-11-03T17:58:05.086Z,1018.41
2018-11-03T17:59:05.030Z,1018.42
2018-11-03T18:00:05.106Z,1018.39
2018-11-03T18:01:05.029Z,1018.40
2018-11-03T18:02:04.965Z,1018.39
2018-11-03T18:03:04.916Z,1018.36
2018-11-03T18:04:04.889Z,1018.34
2018-11-03T18:05:04.867Z,1018.31
2018-11-03T18:06:04.856Z,1018.29
2018-11-03T18:07:04.811Z,1018.29
2018-11-03T18:08:04.778Z,1018.26
2018-11-03T18:09:04.748Z,1018.29
2018-11-03T18:10:04.713Z,1018.19
2018-11-03T18:11:04.686Z,1018.24
2018-11-03T18:12:04.655Z,1018.21
2018-11-03T18:13:04.669Z,1018.21
2018-11-03T18:14:04.605Z,1018.22
2018-11-03T18:15:04.575Z,1018.28
2018-11-03T18:16:04.544Z,1018.24
2018-11-03T18:17:04.625Z,1018.20
2018-11-03T18:18:50.592Z,1018.19
2018-11-03T18:19:50.600Z,1018.16
2018-11-03T18:20:50.509Z,1018.15
2018-11-03T18:21:50.475Z,1018.12
2018-11-03T18:22:50.457Z,1018.15
2018-11-03T18:23:50.419Z,1018.09
2018-11-03T18:24:50.457Z,1018.06
2018-11-03T18:26:36.945Z,1018.12
2018-11-03T18:27:36.865Z,1018.13
2018-11-03T18:28:36.848Z,1018.08
2018-11-03T18:29:36.819Z,1018.07
2018-11-03T18:30:36.825Z,1018.06
2018-11-03T18:31:36.757Z,1018.08
2018-11-03T18:32:36.786Z,1018.05
2018-11-03T18:33:36.753Z,1018.08
2018-11-03T18:34:36.748Z,1018.05
2018-11-03T18:35:36.649Z,1018.03
2018-11-03T18:36:36.746Z,1018.04
2018-11-03T18:37:36.596Z,1018.00
2018-11-03T18:38:36.617Z,1018.03
2018-11-03T18:40:36.808Z,1018.04
2018-11-03T18:41:36.844Z,1018.03
2018-11-03T18:42:36.732Z,1018.05
2018-11-03T18:43:36.751Z,1018.04
2018-11-03T18:44:36.675Z,1018.03
2018-11-03T18:45:36.652Z,1018.04
2018-11-03T18:46:36.686Z,1018.07
2018-11-03T18:47:36.612Z,1017.98
2018-11-03T18:48:36.570Z,1017.97
2018-11-03T18:49:36.555Z,1017.99
2018-11-03T18:50:36.518Z,1017.97
2018-11-03T18:51:36.480Z,1017.88
2018-11-03T18:52:36.488Z,1017.87
2018-11-03T18:53:36.428Z,1017.83
2018-11-03T18:54:36.395Z,1017.81
2018-11-03T18:55:36.359Z,1017.82
2018-11-03T18:56:36.346Z,1017.81
2018-11-03T18:57:36.320Z,1017.86
2018-11-03T18:58:36.353Z,1017.83
2018-11-03T18:59:36.252Z,1017.83
2018-11-03T19:00:36.262Z,1017.83
2018-11-03T19:01:36.193Z,1017.88
2018-11-03T19:02:36.316Z,1017.88
2018-11-03T19:03:36.139Z,1017.85
2018-11-03T19:04:36.172Z,1017.85
2018-11-03T19:05:36.076Z,1017.86
2018-11-03T19:06:36.084Z,1017.90
2018-11-03T19:07:36.023Z,1017.91
2018-11-03T19:08:36.089Z,1017.88
2018-11-03T19:09:35.958Z,1017.87
2018-11-03T19:10:36.013Z,1017.85
2018-11-03T19:11:35.897Z,1017.87
2018-11-03T19:12:35.916Z,1017.85
2018-11-03T19:13:35.839Z,1017.87
2018-11-03T19:14:35.813Z,1017.83
2018-11-03T19:15:35.790Z,1017.88
2018-11-03T19:16:35.760Z,1017.85
2018-11-03T19:17:35.737Z,1017.83
2018-11-03T19:18:35.697Z,1017.84
2018-11-03T19:19:26.214Z,1017.84
2018-11-03T19:20:26.154Z,1017.78
2018-11-03T19:21:26.157Z,1017.80
2018-11-03T19:22:26.092Z,1017.79
2018-11-03T19:23:26.198Z,1017.77
2018-11-03T19:24:26.044Z,1017.77
2018-11-03T19:25:26.083Z,1017.78
2018-11-03T19:26:25.980Z,1017.77
2018-11-03T19:27:25.950Z,1017.76
2018-11-03T19:28:25.922Z,1017.79
2018-11-03T19:29:25.906Z,1017.72
2018-11-03T19:30:26.014Z,1017.67
2018-11-03T19:31:25.853Z,1017.68
2018-11-03T19:32:25.825Z,1017.67
2018-11-03T19:33:25.783Z,1017.67
2018-11-03T19:34:25.752Z,1017.67
2018-11-03T19:35:25.743Z,1017.65
2018-11-03T19:36:25.698Z,1017.66
2018-11-03T19:37:25.659Z,1017.63
2018-11-03T19:38:25.668Z,1017.65
2018-11-03T19:39:25.611Z,1017.63
2018-11-03T19:40:25.644Z,1017.66
2018-11-03T19:41:25.560Z,1017.61
2018-11-03T19:42:25.522Z,1017.63
2018-11-03T19:43:25.488Z,1017.64
2018-11-03T19:44:25.466Z,1017.66
2018-11-03T19:45:25.466Z,1017.69
2018-11-03T19:46:25.403Z,1017.68
2018-11-03T19:47:25.379Z,1017.65
2018-11-03T19:48:25.510Z,1017.67
2018-11-03T19:50:11.683Z,1017.62
2018-11-03T19:50:57.726Z,1017.62
2018-11-03T19:51:57.660Z,1017.64
2018-11-03T19:52:57.612Z,1017.67
2018-11-03T19:53:57.579Z,1017.65
2018-11-03T19:54:57.553Z,1017.62
2018-11-03T19:55:57.521Z,1017.62
2018-11-03T19:56:57.502Z,1017.66
2018-11-03T19:57:57.463Z,1017.62
2018-11-03T19:58:57.432Z,1017.62
2018-11-03T19:59:57.419Z,1017.60
2018-11-03T20:00:57.405Z,1017.58
2018-11-03T20:01:57.342Z,1017.55
2018-11-03T20:02:57.361Z,1017.55
2018-11-03T20:03:57.288Z,1017.57
2018-11-03T20:04:57.253Z,1017.55
2018-11-03T20:05:57.221Z,1017.50
2018-11-03T20:06:57.207Z,1017.48
2018-11-03T20:07:57.172Z,1017.53
2018-11-03T20:08:57.165Z,1017.54
2018-11-03T20:09:57.138Z,1017.50
2018-11-03T20:10:57.210Z,1017.46
2018-11-03T20:11:57.055Z,1017.47
2018-11-03T20:12:57.113Z,1017.44
2018-11-03T20:13:57.026Z,1017.44
2018-11-03T20:14:58.041Z,1017.41
2018-11-03T20:15:56.936Z,1017.42
2018-11-03T20:16:56.936Z,1017.40
2018-11-03T20:17:57.039Z,1017.38
2018-11-03T20:18:56.991Z,1017.39
2018-11-03T20:19:56.821Z,1017.43
2018-11-03T20:20:56.862Z,1017.36
2018-11-03T20:21:56.770Z,1017.43
2018-11-03T20:22:56.769Z,1017.44
2018-11-03T20:23:56.699Z,1017.42
2018-11-03T20:24:56.783Z,1017.38
2018-11-03T20:25:56.666Z,1017.38
2018-11-03T20:26:56.704Z,1017.38
2018-11-03T20:27:56.589Z,1017.33
2018-11-03T20:28:56.616Z,1017.32
2018-11-03T20:29:56.527Z,1017.32
2018-11-03T20:30:56.517Z,1017.33
2018-11-03T20:31:56.558Z,1017.30
2018-11-03T20:32:56.570Z,1017.32
2018-11-03T20:33:56.413Z,1017.28
2018-11-03T20:34:56.458Z,1017.28
2018-11-03T20:35:56.351Z,1017.29
2018-11-03T20:36:56.464Z,1017.25
2018-11-03T20:37:56.307Z,1017.21
2018-11-03T20:38:56.322Z,1017.22
2018-11-03T20:39:42.310Z,1017.25
2018-11-03T20:40:42.216Z,1017.25
2018-11-03T20:41:42.210Z,1017.19
2018-11-03T20:42:42.224Z,1017.23
2018-11-03T20:43:42.224Z,1017.19
2018-11-03T20:44:42.101Z,1017.14
2018-11-03T20:45:42.068Z,1017.17
2018-11-03T20:46:42.071Z,1017.20
2018-11-03T20:47:42.057Z,1017.18
2018-11-03T20:48:41.987Z,1017.15
2018-11-03T20:50:28.511Z,1017.17
2018-11-03T20:51:28.457Z,1017.17
2018-11-03T20:53:22.296Z,1017.16
2018-11-03T20:54:22.254Z,1017.16
2018-11-03T20:55:22.213Z,1017.16
2018-11-03T20:56:22.181Z,1017.16
2018-11-03T20:57:22.152Z,1017.13
2018-11-03T20:58:22.136Z,1017.09
2018-11-03T20:59:22.089Z,1017.06
2018-11-03T21:00:22.065Z,1017.07
2018-11-03T21:01:22.033Z,1017.05
2018-11-03T21:03:08.479Z,1017.05
2018-11-03T21:04:08.406Z,1017.02
2018-11-03T21:05:08.349Z,1017.00
2018-11-03T21:06:08.320Z,1016.95
2018-11-03T21:07:08.300Z,1016.97
2018-11-03T21:08:08.401Z,1017.00
2018-11-03T21:09:08.261Z,1016.99
2018-11-03T21:10:08.240Z,1016.98
2018-11-03T21:11:08.179Z,1016.95
2018-11-03T21:12:08.137Z,1017.01
2018-11-03T21:13:08.116Z,1016.96
2018-11-03T21:14:55.036Z,1016.93